Montevideo, MN

9:47 AM CST on February 10, 2016 (GMT -0600)
Near Chinhinta Park | | Change Station
CLOSE
Current Station
Personal Weather Station
Location: Montevideo, MN
Elevation: 1024 ft
Nearby Weather Stations

Elev 1024 ft 44.94 °N, 95.72 °W | Updated 3 seconds ago

Light Snow
Light Snow
7.9 °F
Feels Like 8 °F
N
2.0
Wind Variable Wind from East
Gusts 6.0 mph

Today
High -- | Low -- °F
--% Chance of Precip.
Yesterday
High -- | Low -- °F
Precip. -- in
Pressure 30.10 in
Visibility 2.5 miles
Clouds Mostly Cloudy 3100 ft
Overcast 3800 ft
Windchill 8 °F
Dew Point 3 °F
Humidity 79%
Rainfall 0.00 in
Snow Depth Not available.
7:31 AM 5:43 PM
Waxing Crescent, 6% visible
METAR KMVE 101534Z AUTO 14008KT 2 1/2SM -SN BKN031 OVC038 M13/M16 A3010 RMK AO2
Pressure 30.10 in
Visibility 2.5 miles
Clouds Mostly Cloudy 3100 ft
Overcast 3800 ft
Windchill 8 °F
Dew Point 3 °F
Humidity 79%
Rainfall 0.00 in
Snow Depth Not available.
7:31 AM 5:43 PM
Waxing Crescent, 6% visible
METAR KMVE 101534Z AUTO 14008KT 2 1/2SM -SN BKN031 OVC038 M13/M16 A3010 RMK AO2

10-Day Weather Forecast

Almanac

Astronomy

Feb. 10, 2016 Rise Set
Actual Time
Civil Twilight
Nautical Twilight
Astronomical Twilight
Moon
Length of Visible Light
Length of Day
Tomorrow will be .
, % of the Moon is Illuminated

Today's Extremes

State Highs State Lows

Community

WunderPhotos

Upload Photos

1,891,863 photos uploaded!

WunderBlog® & News

Nearby

Air Quality

  Air Quality AQ Index Pollutant
Not available.

Snow Depth

Station Depth Elevation

Earthquake Activity

City Distance Mag. Time & Date
Minimum magnitude displayed is 2.5.

Coastal Water Temperatures

Place Temperature

Stations

Nearby Weather Stations

Station Location Temp. Windchill Dew Point Humidity Wind Precip. Elev Updated Type
                   

Watches & Warnings

There are currently no watches in effect.